createdAt,value
2022-12-11T00:00:28.853Z,49.17
2022-12-11T00:02:56.815Z,47.95
2022-12-11T00:05:24.299Z,50.20
2022-12-11T00:07:51.466Z,47.42
2022-12-11T00:10:18.688Z,46.45
2022-12-11T00:12:45.884Z,47.05
2022-12-11T00:15:13.318Z,48.30
2022-12-11T00:17:40.583Z,48.67
2022-12-11T00:20:08.471Z,46.28
2022-12-11T00:22:36.261Z,45.90
2022-12-11T00:25:03.576Z,48.03
2022-12-11T00:27:30.705Z,45.63
2022-12-11T00:29:59.803Z,46.67
2022-12-11T00:32:28.500Z,48.33
2022-12-11T00:34:56.041Z,44.95
2022-12-11T00:37:23.389Z,46.13
2022-12-11T00:39:50.730Z,46.72
2022-12-11T00:42:17.930Z,47.95
2022-12-11T00:48:19.517Z,43.85
2022-12-11T00:50:48.393Z,43.63
2022-12-11T00:53:15.840Z,47.17
2022-12-11T00:55:45.320Z,46.53
2022-12-11T00:58:13.252Z,45.00
2022-12-11T01:00:41.942Z,44.53
2022-12-11T01:03:12.293Z,48.53
2022-12-11T01:05:39.895Z,47.78
2022-12-11T01:08:07.542Z,44.72
2022-12-11T01:10:35.257Z,44.80
2022-12-11T01:13:07.191Z,45.03
2022-12-11T01:15:41.571Z,47.47
2022-12-11T01:18:11.161Z,43.38
2022-12-11T01:20:40.309Z,44.83
2022-12-11T01:23:07.392Z,45.63
2022-12-11T01:25:38.353Z,45.05
2022-12-11T01:28:06.450Z,41.65
2022-12-11T01:30:33.870Z,44.08
2022-12-11T01:33:01.349Z,44.08
2022-12-11T01:35:29.088Z,42.78
2022-12-11T01:37:56.559Z,44.45
2022-12-11T01:40:23.851Z,42.50
2022-12-11T01:42:51.156Z,42.60
2022-12-11T01:45:40.306Z,43.05
2022-12-11T01:48:14.147Z,42.67
2022-12-11T01:51:02.862Z,42.28
2022-12-11T01:53:36.410Z,41.85
2022-12-11T01:56:04.610Z,39.87
2022-12-11T01:58:37.625Z,42.30
2022-12-11T02:01:06.805Z,42.08
2022-12-11T02:03:34.060Z,41.92
2022-12-11T02:06:02.594Z,41.30
2022-12-11T02:08:30.013Z,40.25
2022-12-11T02:11:20.842Z,40.97
2022-12-11T02:14:03.321Z,38.22
2022-12-11T02:16:40.358Z,39.78
2022-12-11T02:19:33.007Z,41.35
2022-12-11T02:22:03.712Z,41.83
2022-12-11T02:25:12.402Z,38.70
2022-12-11T02:27:45.975Z,38.83
2022-12-11T02:30:17.263Z,39.15
2022-12-11T02:32:59.179Z,40.13
2022-12-11T02:35:34.861Z,39.33
2022-12-11T02:38:10.372Z,38.80
2022-12-11T02:40:40.362Z,35.42
2022-12-11T02:43:11.846Z,39.38
2022-12-11T02:45:41.327Z,40.17
2022-12-11T02:48:34.907Z,39.03
2022-12-11T02:51:03.402Z,40.65
2022-12-11T02:53:33.331Z,41.75
2022-12-11T02:56:31.041Z,40.08
2022-12-11T02:59:07.352Z,39.33
2022-12-11T03:01:34.616Z,39.30
2022-12-11T03:04:01.949Z,38.03
2022-12-11T03:06:43.005Z,38.67
2022-12-11T03:09:10.592Z,39.78
2022-12-11T03:11:37.798Z,38.67
2022-12-11T03:14:05.649Z,40.60
2022-12-11T03:16:38.547Z,42.03
2022-12-11T03:19:24.693Z,40.33
2022-12-11T03:22:03.813Z,40.40
2022-12-11T03:24:44.566Z,39.75
2022-12-11T03:27:21.894Z,35.70
2022-12-11T03:30:02.529Z,38.92
2022-12-11T03:32:36.427Z,39.45
2022-12-11T03:35:14.698Z,38.20
2022-12-11T03:37:43.992Z,37.38
2022-12-11T03:40:16.418Z,41.88
2022-12-11T03:42:46.131Z,40.58
2022-12-11T03:45:14.925Z,38.05
2022-12-11T03:47:42.642Z,40.28
2022-12-11T03:50:13.281Z,40.25
2022-12-11T03:52:45.851Z,38.10
2022-12-11T03:55:16.850Z,37.67
2022-12-11T03:57:44.720Z,40.25
2022-12-11T04:00:15.493Z,40.33
2022-12-11T04:02:42.858Z,37.33
2022-12-11T04:05:20.879Z,41.10
2022-12-11T04:07:48.102Z,37.13
2022-12-11T04:10:15.364Z,38.83
2022-12-11T04:12:42.482Z,39.42
2022-12-11T04:15:10.048Z,39.38
2022-12-11T04:17:56.163Z,38.80
2022-12-11T04:20:41.792Z,40.13
2022-12-11T04:23:33.707Z,38.28
2022-12-11T04:26:07.892Z,37.75
2022-12-11T04:28:36.533Z,36.15
2022-12-11T04:31:05.174Z,39.00
2022-12-11T04:33:32.509Z,38.17
2022-12-11T04:36:01.123Z,38.53
2022-12-11T04:38:29.711Z,39.80
2022-12-11T04:41:00.036Z,38.13
2022-12-11T04:43:28.291Z,40.03
2022-12-11T04:46:05.387Z,38.88
2022-12-11T04:48:32.659Z,37.67
2022-12-11T04:51:00.244Z,38.20
2022-12-11T04:53:28.540Z,37.22
2022-12-11T04:55:55.890Z,33.38
2022-12-11T04:58:24.874Z,35.28
2022-12-11T05:00:52.627Z,36.97
2022-12-11T05:03:20.502Z,36.67
2022-12-11T05:05:52.778Z,36.42
2022-12-11T05:08:21.938Z,39.30
2022-12-11T05:10:59.645Z,34.10
2022-12-11T05:13:28.611Z,34.90
2022-12-11T05:16:25.029Z,33.15
2022-12-11T05:18:54.872Z,33.63
2022-12-11T05:21:22.006Z,31.63
2022-12-11T05:23:50.328Z,32.22
2022-12-11T05:26:20.031Z,34.35
2022-12-11T05:28:53.421Z,33.55
2022-12-11T05:31:26.016Z,33.65
2022-12-11T05:33:54.384Z,32.15
2022-12-11T05:36:30.533Z,33.30
2022-12-11T05:38:59.791Z,32.28
2022-12-11T05:41:30.690Z,34.28
2022-12-11T05:43:58.289Z,31.67
2022-12-11T05:46:28.510Z,32.53
2022-12-11T05:48:58.900Z,32.90
2022-12-11T05:51:26.745Z,28.25
2022-12-11T05:53:55.333Z,31.20
2022-12-11T05:56:25.194Z,31.40
2022-12-11T05:58:53.043Z,30.85
2022-12-11T06:01:29.923Z,29.02
2022-12-11T06:03:58.298Z,30.20
2022-12-11T06:06:27.113Z,30.42
2022-12-11T06:08:56.165Z,30.15
2022-12-11T06:11:25.152Z,29.75
2022-12-11T06:13:56.009Z,30.50
2022-12-11T06:16:25.835Z,30.17
2022-12-11T06:18:57.111Z,31.30
2022-12-11T06:21:30.731Z,29.55
2022-12-11T06:23:59.683Z,27.73
2022-12-11T06:26:27.981Z,29.85
2022-12-11T06:28:55.158Z,28.77
2022-12-11T06:31:22.948Z,28.60
2022-12-11T06:33:50.410Z,28.67
2022-12-11T06:36:20.646Z,31.15
2022-12-11T06:41:31.433Z,28.58
2022-12-11T06:43:58.612Z,28.50
2022-12-11T06:46:25.813Z,28.00
2022-12-11T06:48:53.187Z,28.85
2022-12-11T06:51:23.125Z,28.50
2022-12-11T06:53:57.206Z,26.65
2022-12-11T06:56:26.663Z,28.83
2022-12-11T06:58:54.160Z,29.70
2022-12-11T07:01:24.755Z,28.08
2022-12-11T07:03:56.838Z,29.48
2022-12-11T07:06:25.361Z,28.80
2022-12-11T07:08:52.912Z,27.67
2022-12-11T07:11:21.250Z,26.50
2022-12-11T07:13:48.928Z,28.27
2022-12-11T07:16:18.157Z,28.80
2022-12-11T07:18:49.937Z,27.52
2022-12-11T07:21:20.194Z,29.52
2022-12-11T07:23:48.854Z,29.88
2022-12-11T07:26:18.783Z,27.63
2022-12-11T07:28:46.106Z,26.08
2022-12-11T07:31:16.144Z,28.20
2022-12-11T07:33:43.458Z,27.17
2022-12-11T07:36:13.101Z,25.98
2022-12-11T07:38:41.208Z,27.15
2022-12-11T07:41:11.926Z,27.35
2022-12-11T07:43:39.801Z,26.13
2022-12-11T07:46:22.247Z,28.38
2022-12-11T07:48:49.823Z,28.27
2022-12-11T07:51:18.173Z,29.20
2022-12-11T07:53:46.718Z,27.30
2022-12-11T07:56:14.688Z,27.10
2022-12-11T07:58:42.154Z,27.80
2022-12-11T08:01:17.791Z,26.30
2022-12-11T08:03:45.544Z,26.67
2022-12-11T08:06:13.193Z,27.50
2022-12-11T08:08:41.843Z,29.52
2022-12-11T08:11:12.052Z,27.92
2022-12-11T08:13:40.204Z,28.15
2022-12-11T08:16:13.699Z,26.77
2022-12-11T08:18:42.159Z,26.83
2022-12-11T08:21:13.650Z,26.63
2022-12-11T08:23:41.096Z,28.50
2022-12-11T08:26:11.515Z,28.45
2022-12-11T08:28:38.848Z,28.33
2022-12-11T08:31:08.285Z,26.98
2022-12-11T08:33:36.827Z,27.27
2022-12-11T08:36:08.891Z,25.50
2022-12-11T08:38:36.791Z,27.75
2022-12-11T08:41:30.866Z,27.27
2022-12-11T08:44:00.489Z,27.33
2022-12-11T08:46:30.866Z,26.80
2022-12-11T08:48:58.662Z,27.75
2022-12-11T08:51:28.979Z,24.42
2022-12-11T08:53:59.073Z,26.15
2022-12-11T08:56:27.527Z,26.83
2022-12-11T08:58:55.152Z,25.77
2022-12-11T09:01:24.951Z,26.20
2022-12-11T09:03:53.768Z,24.77
2022-12-11T09:06:22.865Z,25.42
2022-12-11T09:08:52.955Z,25.60
2022-12-11T09:11:26.569Z,25.95
2022-12-11T09:13:54.685Z,28.27
2022-12-11T09:16:24.161Z,28.00
2022-12-11T09:18:53.833Z,28.58
2022-12-11T09:21:25.170Z,28.85
2022-12-11T09:24:01.685Z,28.90
2022-12-11T09:26:30.491Z,26.90
2022-12-11T09:28:58.794Z,24.90
2022-12-11T09:31:32.143Z,26.00
2022-12-11T09:34:03.827Z,26.60
2022-12-11T09:36:31.553Z,25.15
2022-12-11T09:39:06.709Z,25.63
2022-12-11T09:41:34.139Z,24.85
2022-12-11T09:44:11.161Z,25.48
2022-12-11T09:46:40.377Z,25.48
2022-12-11T09:49:24.223Z,26.60
2022-12-11T09:52:11.619Z,24.40
2022-12-11T09:54:45.343Z,24.48
2022-12-11T09:57:24.613Z,24.65
2022-12-11T10:00:12.636Z,23.42
2022-12-11T10:03:01.305Z,23.70
2022-12-11T10:06:02.759Z,21.88
2022-12-11T10:08:55.709Z,20.73
2022-12-11T10:11:28.658Z,20.67
2022-12-11T10:14:23.899Z,19.58
2022-12-11T10:19:29.287Z,19.05
2022-12-11T10:21:58.085Z,19.17
2022-12-11T10:25:07.654Z,21.48
2022-12-11T10:27:21.546Z,19.27
2022-12-11T10:30:12.658Z,18.00
2022-12-11T10:33:05.105Z,15.90
2022-12-11T10:35:49.114Z,16.13
2022-12-11T10:38:36.985Z,17.70
2022-12-11T10:41:12.245Z,19.63
2022-12-11T10:43:42.610Z,19.92
2022-12-11T10:46:17.831Z,16.83
2022-12-11T10:48:49.277Z,16.92
2022-12-11T10:51:18.111Z,18.60
2022-12-11T10:53:54.284Z,19.15
2022-12-11T10:56:33.842Z,18.55
2022-12-11T10:59:01.635Z,19.13
2022-12-11T11:01:32.067Z,17.17
2022-12-11T11:04:19.374Z,15.45
2022-12-11T11:06:46.670Z,15.90
2022-12-11T11:09:35.781Z,15.60
2022-12-11T11:12:07.931Z,16.50
2022-12-11T11:14:35.391Z,16.77
2022-12-11T11:17:02.550Z,14.90
2022-12-11T11:19:37.132Z,16.45
2022-12-11T11:22:15.087Z,16.75
2022-12-11T11:24:46.045Z,16.75
2022-12-11T11:27:33.436Z,16.30
2022-12-11T11:30:05.168Z,15.00
2022-12-11T11:32:41.297Z,15.18
2022-12-11T11:35:17.210Z,13.95
2022-12-11T11:38:12.523Z,12.70
2022-12-11T11:40:49.241Z,16.10
2022-12-11T11:43:21.426Z,12.80
2022-12-11T11:45:54.105Z,13.25
2022-12-11T11:48:36.647Z,12.98
2022-12-11T11:51:33.748Z,15.63
2022-12-11T11:54:08.880Z,13.75
2022-12-11T11:56:38.099Z,14.50
2022-12-11T11:59:17.241Z,16.65
2022-12-11T12:01:44.730Z,16.50
2022-12-11T12:04:12.626Z,18.05
2022-12-11T12:06:57.469Z,20.30
2022-12-11T12:09:50.139Z,19.65
2022-12-11T12:12:41.352Z,15.88
2022-12-11T12:15:29.399Z,18.65
2022-12-11T12:18:18.543Z,17.58
2022-12-11T12:21:17.585Z,22.25
2022-12-11T12:24:03.149Z,20.55
2022-12-11T12:26:37.360Z,20.50
2022-12-11T12:29:22.353Z,21.73
2022-12-11T12:32:01.033Z,20.52
2022-12-11T12:34:49.428Z,19.60
2022-12-11T12:37:25.127Z,23.50
2022-12-11T12:40:30.529Z,20.75
2022-12-11T12:45:46.367Z,23.52
2022-12-11T12:48:13.491Z,22.00
2022-12-11T12:50:47.157Z,27.33
2022-12-11T12:53:18.712Z,19.53
2022-12-11T12:55:48.187Z,20.27
2022-12-11T12:58:47.735Z,19.73
2022-12-11T13:01:24.441Z,20.15
2022-12-11T13:04:04.206Z,17.52
2022-12-11T13:06:41.977Z,23.25
2022-12-11T13:09:27.159Z,17.67
2022-12-11T13:11:59.908Z,16.77
2022-12-11T13:14:32.703Z,15.93
2022-12-11T13:17:24.624Z,16.13
2022-12-11T13:20:09.974Z,15.82
2022-12-11T13:22:52.111Z,14.15
2022-12-11T13:25:28.460Z,12.55
2022-12-11T13:28:07.423Z,13.73
2022-12-11T13:30:35.327Z,13.88
2022-12-11T13:33:14.493Z,12.98
2022-12-11T13:35:41.878Z,13.93
2022-12-11T13:38:17.665Z,15.40
2022-12-11T13:40:47.026Z,17.23
2022-12-11T13:43:27.110Z,18.20
2022-12-11T13:45:57.439Z,15.55
2022-12-11T13:48:32.537Z,16.23
2022-12-11T13:51:00.518Z,16.83
2022-12-11T13:53:28.187Z,16.10
2022-12-11T13:56:03.758Z,17.15
2022-12-11T13:58:35.264Z,16.75
2022-12-11T14:01:22.971Z,18.10
2022-12-11T14:04:09.408Z,19.77
2022-12-11T14:06:39.355Z,19.92
2022-12-11T14:09:08.381Z,20.50
2022-12-11T14:11:38.694Z,20.00
2022-12-11T14:14:18.050Z,19.63
2022-12-11T14:16:49.362Z,18.60
2022-12-11T14:19:20.052Z,40.75
2022-12-11T14:22:08.057Z,29.52
2022-12-11T14:24:35.657Z,29.63
2022-12-11T14:27:04.896Z,17.73
2022-12-11T14:29:33.947Z,19.63
2022-12-11T14:32:06.848Z,20.42
2022-12-11T14:34:45.555Z,18.63
2022-12-11T14:37:16.094Z,15.77
2022-12-11T14:40:14.584Z,17.02
2022-12-11T14:42:48.072Z,15.35
2022-12-11T14:45:30.055Z,16.90
2022-12-11T14:47:58.682Z,15.75
2022-12-11T14:50:37.719Z,18.60
2022-12-11T14:53:15.381Z,19.90
2022-12-11T14:55:42.834Z,24.90
2022-12-11T14:58:21.487Z,17.40
2022-12-11T15:01:04.357Z,19.00
2022-12-11T15:03:35.222Z,25.55
2022-12-11T15:06:03.835Z,26.35
2022-12-11T15:08:34.096Z,18.85
2022-12-11T15:11:06.078Z,20.30
2022-12-11T15:13:35.384Z,26.60
2022-12-11T15:16:03.335Z,23.42
2022-12-11T15:18:33.642Z,17.58
2022-12-11T15:21:04.326Z,18.27
2022-12-11T15:23:31.474Z,15.75
2022-12-11T15:26:02.069Z,14.65
2022-12-11T15:28:35.185Z,16.27
2022-12-11T15:31:07.957Z,17.80
2022-12-11T15:33:46.018Z,18.58
2022-12-11T15:36:31.897Z,21.60
2022-12-11T15:38:59.304Z,18.85
2022-12-11T15:41:26.885Z,16.65
2022-12-11T15:43:58.974Z,18.05
2022-12-11T15:46:28.364Z,15.35
2022-12-11T15:48:57.580Z,17.60
2022-12-11T15:51:25.460Z,27.70
2022-12-11T15:53:52.660Z,18.42
2022-12-11T15:56:19.905Z,17.52
2022-12-11T15:58:49.019Z,17.77
2022-12-11T16:01:16.269Z,17.48
2022-12-11T16:03:43.437Z,24.67
2022-12-11T16:06:13.728Z,23.60
2022-12-11T16:08:40.858Z,18.02
2022-12-11T16:11:08.051Z,19.23
2022-12-11T16:13:35.320Z,19.50
2022-12-11T16:16:02.693Z,15.93
2022-12-11T16:18:29.914Z,19.27
2022-12-11T16:20:56.986Z,19.52
2022-12-11T16:23:24.375Z,21.67
2022-12-11T16:25:52.098Z,19.80
2022-12-11T16:28:21.316Z,17.20
2022-12-11T16:30:49.101Z,18.95
2022-12-11T16:33:16.609Z,15.75
2022-12-11T16:35:43.755Z,18.25
2022-12-11T16:38:11.388Z,17.00
2022-12-11T16:40:38.758Z,15.32
2022-12-11T16:43:06.478Z,22.33
2022-12-11T16:45:34.458Z,14.80
2022-12-11T16:48:05.721Z,14.65
2022-12-11T16:50:32.959Z,14.13
2022-12-11T16:53:00.075Z,15.52
2022-12-11T16:55:27.383Z,17.67
2022-12-11T16:57:55.355Z,13.27
2022-12-11T17:00:22.755Z,13.90
2022-12-11T17:02:50.304Z,14.75
2022-12-11T17:05:17.609Z,17.13
2022-12-11T17:07:44.767Z,14.63
2022-12-11T17:10:12.353Z,18.70
2022-12-11T17:12:39.635Z,20.58
2022-12-11T17:15:07.347Z,21.95
2022-12-11T17:17:34.568Z,18.65
2022-12-11T17:20:01.743Z,19.83
2022-12-11T17:22:29.781Z,15.88
2022-12-11T17:24:56.987Z,25.40
2022-12-11T17:27:24.189Z,17.80
2022-12-11T17:29:51.396Z,21.10
2022-12-11T17:32:19.016Z,15.60
2022-12-11T17:34:48.308Z,18.20
2022-12-11T17:37:15.461Z,17.48
2022-12-11T17:39:42.645Z,28.23
2022-12-11T17:42:09.783Z,26.35
2022-12-11T17:44:37.532Z,18.85
2022-12-11T17:47:10.843Z,16.38
2022-12-11T17:49:41.965Z,15.57
2022-12-11T17:52:09.273Z,17.33
2022-12-11T17:54:36.596Z,17.35
2022-12-11T17:57:03.982Z,18.85
2022-12-11T17:59:31.612Z,17.42
2022-12-11T18:01:59.328Z,17.52
2022-12-11T18:04:26.880Z,17.92
2022-12-11T18:06:54.070Z,19.45
2022-12-11T18:09:21.255Z,18.17
2022-12-11T18:11:48.530Z,18.33
2022-12-11T18:14:17.645Z,19.98
2022-12-11T18:16:44.895Z,19.00
2022-12-11T18:19:12.528Z,19.98
2022-12-11T18:21:43.880Z,22.15
2022-12-11T18:24:11.618Z,23.80
2022-12-11T18:26:38.977Z,24.40
2022-12-11T18:29:06.890Z,22.05
2022-12-11T18:31:38.887Z,21.00
2022-12-11T18:34:10.043Z,21.17
2022-12-11T18:36:37.162Z,22.05
2022-12-11T18:39:04.350Z,21.73
2022-12-11T18:41:31.572Z,20.98
2022-12-11T18:44:05.193Z,21.08
2022-12-11T18:46:35.401Z,25.10
2022-12-11T18:49:02.607Z,29.88
2022-12-11T18:51:29.948Z,22.33
2022-12-11T18:53:57.257Z,24.02
2022-12-11T18:56:24.531Z,20.77
2022-12-11T18:58:52.133Z,21.55
2022-12-11T19:01:26.500Z,21.50
2022-12-11T19:04:02.044Z,21.85
2022-12-11T19:06:33.284Z,23.42
2022-12-11T19:09:00.714Z,20.25
2022-12-11T19:11:30.120Z,29.48
2022-12-11T19:13:58.041Z,24.65
2022-12-11T19:16:31.058Z,22.83
2022-12-11T19:18:59.319Z,23.45
2022-12-11T19:21:27.359Z,21.60
2022-12-11T19:23:54.748Z,23.33
2022-12-11T19:26:23.878Z,27.67
2022-12-11T19:28:52.976Z,26.67
2022-12-11T19:31:22.545Z,23.85
2022-12-11T19:33:50.146Z,24.60
2022-12-11T19:36:22.345Z,22.42
2022-12-11T19:38:49.665Z,23.90
2022-12-11T19:41:21.068Z,24.48
2022-12-11T19:43:49.111Z,23.42
2022-12-11T19:46:17.226Z,22.95
2022-12-11T19:48:44.654Z,22.50
2022-12-11T19:51:33.904Z,23.05
2022-12-11T19:54:04.627Z,27.95
2022-12-11T19:56:32.529Z,22.15
2022-12-11T19:59:02.079Z,25.58
2022-12-11T20:01:32.184Z,21.63
2022-12-11T20:04:02.382Z,23.15
2022-12-11T20:06:32.109Z,22.58
2022-12-11T20:09:01.400Z,23.90
2022-12-11T20:11:28.862Z,25.60
2022-12-11T20:13:56.715Z,23.92
2022-12-11T20:16:39.584Z,22.25
2022-12-11T20:19:11.681Z,24.15
2022-12-11T20:21:38.968Z,25.17
2022-12-11T20:24:06.485Z,25.38
2022-12-11T20:26:36.571Z,27.13
2022-12-11T20:29:07.409Z,29.80
2022-12-11T20:31:36.602Z,33.38
2022-12-11T20:34:04.815Z,35.88
2022-12-11T20:36:32.333Z,125.03
2022-12-11T20:39:01.101Z,64.70
2022-12-11T20:41:28.395Z,43.13
2022-12-11T20:43:55.853Z,42.22
2022-12-11T20:46:25.349Z,30.42
2022-12-11T20:48:53.151Z,28.92
2022-12-11T20:51:25.815Z,31.38
2022-12-11T20:54:01.398Z,33.42
2022-12-11T20:56:30.886Z,22.65
2022-12-11T20:58:59.516Z,24.40
2022-12-11T21:01:28.726Z,23.92
2022-12-11T21:03:56.481Z,22.55
2022-12-11T21:06:32.631Z,24.17
2022-12-11T21:09:02.213Z,23.55
2022-12-11T21:11:29.509Z,21.90
2022-12-11T21:13:56.688Z,23.27
2022-12-11T21:16:24.832Z,21.85
2022-12-11T21:18:54.653Z,22.58
2022-12-11T21:21:21.931Z,23.05
2022-12-11T21:23:49.501Z,22.20
2022-12-11T21:26:16.955Z,23.10
2022-12-11T21:28:44.207Z,22.48
2022-12-11T21:31:14.882Z,23.73
2022-12-11T21:33:42.408Z,22.73
2022-12-11T21:36:11.866Z,22.45
2022-12-11T21:38:39.786Z,20.90
2022-12-11T21:41:19.355Z,20.67
2022-12-11T21:45:25.553Z,19.23
2022-12-11T21:46:35.896Z,21.27
2022-12-11T21:49:03.693Z,22.02
2022-12-11T21:51:37.681Z,22.48
2022-12-11T21:54:07.103Z,21.92
2022-12-11T21:56:34.410Z,23.73
2022-12-11T21:59:01.814Z,22.60
2022-12-11T22:01:33.734Z,26.92
2022-12-11T22:04:02.498Z,23.75
2022-12-11T22:06:29.594Z,22.50
2022-12-11T22:08:56.933Z,23.67
2022-12-11T22:11:27.074Z,24.98
2022-12-11T22:13:54.425Z,21.63
2022-12-11T22:16:21.985Z,24.80
2022-12-11T22:18:49.111Z,24.17
2022-12-11T22:21:17.176Z,20.75
2022-12-11T22:23:44.768Z,23.77
2022-12-11T22:26:17.034Z,23.73
2022-12-11T22:28:44.344Z,23.38
2022-12-11T22:31:13.504Z,24.17
2022-12-11T22:33:40.830Z,22.25
2022-12-11T22:36:08.334Z,23.48
2022-12-11T22:38:35.563Z,22.75
2022-12-11T22:41:09.666Z,23.20
2022-12-11T22:43:36.914Z,22.92
2022-12-11T22:46:04.146Z,24.23
2022-12-11T22:48:31.405Z,23.63
2022-12-11T22:50:58.565Z,24.55
2022-12-11T22:53:26.131Z,23.50
2022-12-11T22:55:53.605Z,22.35
2022-12-11T22:58:21.993Z,24.75
2022-12-11T23:00:49.534Z,22.80
2022-12-11T23:03:18.480Z,24.13
2022-12-11T23:05:45.598Z,22.95
2022-12-11T23:08:12.770Z,23.63
2022-12-11T23:10:41.237Z,23.95
2022-12-11T23:13:08.406Z,22.63
2022-12-11T23:15:35.731Z,24.40
2022-12-11T23:18:02.888Z,24.98
2022-12-11T23:20:30.313Z,24.30
2022-12-11T23:22:57.974Z,25.52
2022-12-11T23:25:25.076Z,24.63
2022-12-11T23:27:52.312Z,24.65
2022-12-11T23:30:19.508Z,24.85
2022-12-11T23:32:46.599Z,25.45
2022-12-11T23:35:13.939Z,23.60
2022-12-11T23:37:41.553Z,23.33
2022-12-11T23:40:09.211Z,22.27
2022-12-11T23:42:36.310Z,24.77
2022-12-11T23:45:03.566Z,24.52
2022-12-11T23:47:30.687Z,24.50
2022-12-11T23:49:57.879Z,23.15
2022-12-11T23:52:26.754Z,25.05
2022-12-11T23:54:55.520Z,24.80
2022-12-11T23:57:23.523Z,25.75
2022-12-11T23:59:50.631Z,25.35
